createdAt,value
2018-09-25T00:00:46.999Z,146496.13
2018-09-25T00:03:21.993Z,146513.48
2018-09-25T00:05:56.964Z,146514.72
2018-09-25T00:08:32.001Z,146485.00
2018-09-25T00:11:07.155Z,146483.77
2018-09-25T00:13:43.404Z,146493.66
2018-09-25T00:16:18.548Z,146488.70
2018-09-25T00:18:53.572Z,146480.05
2018-09-25T00:21:28.470Z,146477.58
2018-09-25T00:24:03.209Z,146466.45
2018-09-25T00:26:38.058Z,146476.34
2018-09-25T00:29:14.022Z,146476.34
2018-09-25T00:31:48.874Z,146454.03
2018-09-25T00:34:24.181Z,146426.84
2018-09-25T00:36:59.340Z,146423.12
2018-09-25T00:39:35.225Z,146398.36
2018-09-25T00:42:10.432Z,146389.70
2018-09-25T00:44:45.492Z,146378.58
2018-09-25T00:47:20.316Z,146358.75
2018-09-25T00:49:56.263Z,146342.69
2018-09-25T00:52:31.159Z,146366.17
2018-09-25T00:55:06.231Z,146341.45
2018-09-25T00:57:41.287Z,146355.05
2018-09-25T01:00:16.267Z,146361.22
2018-09-25T01:02:51.137Z,146373.64
2018-09-25T01:05:26.078Z,146357.52
2018-09-25T01:08:01.162Z,146334.03
2018-09-25T01:10:36.402Z,146325.37
2018-09-25T01:13:11.398Z,146324.16
2018-09-25T01:15:46.621Z,146336.50
2018-09-25T01:18:21.812Z,146309.28
2018-09-25T01:20:56.710Z,146312.98
2018-09-25T01:23:31.507Z,146326.63
2018-09-25T01:26:08.285Z,146315.45
2018-09-25T01:28:43.310Z,146282.08
2018-09-25T01:31:18.048Z,146288.27
2018-09-25T01:33:53.044Z,146263.50
2018-09-25T01:36:27.925Z,146270.92
2018-09-25T01:39:03.174Z,146248.67
2018-09-25T01:41:37.965Z,146248.67
2018-09-25T01:44:12.930Z,146249.91
2018-09-25T01:46:48.772Z,146252.38
2018-09-25T01:49:23.710Z,146246.20
2018-09-25T01:51:59.885Z,146272.16
2018-09-25T01:54:34.979Z,146265.97
2018-09-25T01:57:09.908Z,146258.56
2018-09-25T01:59:44.825Z,146282.08
2018-09-25T02:02:19.963Z,146290.73
2018-09-25T02:04:55.071Z,146336.50
2018-09-25T02:07:33.346Z,146330.33
2018-09-25T02:10:08.354Z,146357.52
2018-09-25T02:12:44.268Z,146364.94
2018-09-25T02:15:19.391Z,146366.17
2018-09-25T02:17:54.744Z,146363.70
2018-09-25T02:20:29.669Z,146377.34
2018-09-25T02:23:04.617Z,146387.23
2018-09-25T02:25:39.459Z,146378.58
2018-09-25T02:28:14.795Z,146362.47
2018-09-25T02:30:49.429Z,146392.17
2018-09-25T02:33:25.477Z,146387.23
2018-09-25T02:36:00.704Z,146408.25
2018-09-25T02:38:35.521Z,146444.14
2018-09-25T02:41:10.540Z,146468.92
2018-09-25T02:43:45.621Z,146498.59
2018-09-25T02:46:21.202Z,146502.31
2018-09-25T02:48:57.348Z,146494.89
2018-09-25T02:51:32.224Z,146503.55
2018-09-25T02:54:07.790Z,146524.61
2018-09-25T02:56:42.849Z,146540.69
2018-09-25T02:59:19.029Z,146522.14
2018-09-25T03:01:54.030Z,146538.22
2018-09-25T03:04:29.090Z,146476.34
2018-09-25T03:07:04.224Z,146454.03
2018-09-25T03:09:39.068Z,146455.28
2018-09-25T03:12:14.194Z,146441.67
2018-09-25T03:14:49.100Z,146488.70
2018-09-25T03:17:23.788Z,146520.91
2018-09-25T03:19:59.299Z,146515.97
2018-09-25T03:31:22.764Z,146488.70
2018-09-25T03:33:57.979Z,146460.22
2018-09-25T03:36:33.164Z,146468.92
2018-09-25T03:39:08.295Z,146515.97
2018-09-25T03:41:43.602Z,146553.06
2018-09-25T03:44:18.644Z,146491.19
2018-09-25T03:46:53.867Z,146491.19
2018-09-25T03:49:29.526Z,146449.09
2018-09-25T03:52:05.248Z,146449.09
2018-09-25T03:54:40.073Z,146476.34
2018-09-25T03:57:15.157Z,146496.13
2018-09-25T03:59:50.662Z,146501.08
2018-09-25T04:02:25.589Z,146519.67
2018-09-25T04:05:00.755Z,146540.69
2018-09-25T04:07:36.401Z,146539.45
2018-09-25T04:10:11.788Z,146569.19
2018-09-25T04:12:46.686Z,146565.47
2018-09-25T04:15:22.707Z,146584.03
2018-09-25T04:17:58.305Z,146592.69
2018-09-25T04:20:33.225Z,146603.81
2018-09-25T04:23:09.353Z,146595.16
2018-09-25T04:25:44.373Z,146596.41
2018-09-25T04:28:19.396Z,146624.94
2018-09-25T04:30:54.496Z,146620.00
2018-09-25T04:33:29.571Z,146649.69
2018-09-25T04:36:04.557Z,146657.16
2018-09-25T04:38:41.123Z,146674.47
2018-09-25T04:41:16.406Z,146686.84
2018-09-25T04:43:51.317Z,146704.22
2018-09-25T04:46:26.833Z,146716.59
2018-09-25T04:49:01.735Z,146735.16
2018-09-25T04:51:36.737Z,146697.98
2018-09-25T04:54:12.691Z,146690.56
2018-09-25T04:56:47.702Z,146719.06
2018-09-25T04:59:22.865Z,146714.12
2018-09-25T05:01:57.652Z,146696.75
2018-09-25T05:04:32.599Z,146724.02
2018-09-25T05:07:07.851Z,146726.50
2018-09-25T05:09:43.073Z,146724.02
2018-09-25T05:12:18.259Z,146719.06
2018-09-25T05:14:53.396Z,146735.16
2018-09-25T05:17:28.451Z,146762.44
2018-09-25T05:20:03.520Z,146792.12
2018-09-25T05:22:38.589Z,146800.84
2018-09-25T05:25:13.938Z,146782.23
2018-09-25T05:27:49.541Z,146785.94
2018-09-25T05:30:24.535Z,146790.91
2018-09-25T05:32:59.851Z,146818.17
2018-09-25T05:35:35.005Z,146834.27
2018-09-25T05:38:09.967Z,146859.08
2018-09-25T05:40:45.167Z,146872.69
2018-09-25T05:43:21.161Z,146862.78
2018-09-25T05:45:56.092Z,146887.59
2018-09-25T05:48:31.158Z,146887.59
2018-09-25T05:51:06.956Z,146892.55
2018-09-25T05:53:41.891Z,146943.38
2018-09-25T05:56:17.606Z,146942.13
2018-09-25T05:58:52.371Z,147001.67
2018-09-25T06:01:27.448Z,147012.81
2018-09-25T06:04:02.413Z,147043.83
2018-09-25T06:06:37.343Z,147053.73
2018-09-25T06:09:14.215Z,147103.34
2018-09-25T06:11:49.363Z,147100.86
2018-09-25T06:14:25.351Z,147108.30
2018-09-25T06:17:01.061Z,147157.91
2018-09-25T06:19:35.876Z,147177.78
2018-09-25T06:22:10.905Z,147166.58
2018-09-25T06:24:45.863Z,147175.30
2018-09-25T06:27:20.895Z,147250.95
2018-09-25T06:29:56.181Z,147329.20
2018-09-25T06:32:32.077Z,147404.94
2018-09-25T06:35:07.058Z,147480.64
2018-09-25T06:37:42.078Z,147565.12
2018-09-25T06:40:17.775Z,147719.17
2018-09-25T06:42:53.509Z,147671.95
2018-09-25T06:45:31.631Z,147751.48
2018-09-25T06:48:06.877Z,147818.62
2018-09-25T06:50:42.209Z,147786.30
2018-09-25T06:53:17.816Z,147753.97
2018-09-25T06:55:53.101Z,147755.22
2018-09-25T06:58:28.221Z,147660.78
2018-09-25T07:01:04.518Z,147639.69
2018-09-25T07:03:39.471Z,147617.30
2018-09-25T07:06:15.509Z,147679.41
2018-09-25T07:11:30.754Z,147854.69
2018-09-25T07:14:05.834Z,147930.55
2018-09-25T07:16:40.766Z,148057.41
2018-09-25T07:19:15.859Z,148032.50
2018-09-25T07:21:50.924Z,148016.31
2018-09-25T07:24:25.949Z,148015.06
2018-09-25T07:27:01.258Z,148093.48
2018-09-25T07:29:36.215Z,148114.67
2018-09-25T07:32:11.284Z,148256.52
2018-09-25T07:34:49.365Z,148049.95
2018-09-25T07:37:24.141Z,148041.20
2018-09-25T07:39:59.428Z,148071.13
2018-09-25T07:42:34.398Z,148146.98
2018-09-25T07:45:09.422Z,148159.45
2018-09-25T07:47:44.352Z,148099.70
2018-09-25T07:50:19.409Z,148305.11
2018-09-25T07:52:54.518Z,148317.55
2018-09-25T07:55:30.437Z,148311.33
2018-09-25T07:58:06.101Z,148381.02
2018-09-25T08:00:40.812Z,148236.58
2018-09-25T08:03:15.915Z,148144.50
2018-09-25T08:05:51.032Z,148146.98
2018-09-25T08:08:25.989Z,148252.78
2018-09-25T08:11:01.023Z,148242.80
2018-09-25T08:13:35.910Z,148272.69
2018-09-25T08:16:10.826Z,148176.86
2018-09-25T08:18:46.111Z,148206.75
2018-09-25T08:21:20.934Z,148191.78
2018-09-25T08:23:55.856Z,148135.80
2018-09-25T08:26:30.599Z,147981.53
2018-09-25T08:29:06.460Z,147901.94
2018-09-25T08:31:41.592Z,147872.08
2018-09-25T08:34:16.622Z,147915.59
2018-09-25T08:36:51.486Z,147967.81
2018-09-25T08:39:27.057Z,147933.03
2018-09-25T08:42:02.857Z,147898.20
2018-09-25T08:44:37.810Z,147872.08
2018-09-25T08:47:12.962Z,147797.47
2018-09-25T08:49:48.054Z,147712.97
2018-09-25T08:52:22.833Z,147696.83
2018-09-25T08:54:58.983Z,147772.59
2018-09-25T08:57:33.979Z,147806.22
2018-09-25T09:00:09.796Z,147875.84
2018-09-25T09:02:44.931Z,147862.14
2018-09-25T09:05:20.704Z,147832.34
2018-09-25T09:07:55.448Z,147766.39
2018-09-25T09:10:33.506Z,147818.62
2018-09-25T09:13:08.387Z,147787.55
2018-09-25T09:15:43.542Z,147744.05
2018-09-25T09:18:18.428Z,147855.94
2018-09-25T09:20:53.208Z,147868.34
2018-09-25T09:23:28.141Z,147893.23
2018-09-25T09:26:03.118Z,147836.06
2018-09-25T09:28:38.026Z,147809.94
2018-09-25T09:31:13.080Z,147796.23
2018-09-25T09:33:47.868Z,147662.03
2018-09-25T09:36:23.760Z,147669.47
2018-09-25T09:38:58.622Z,147725.37
2018-09-25T09:41:33.475Z,147666.98
2018-09-25T09:44:08.403Z,147709.23
2018-09-25T09:46:43.708Z,147760.19
2018-09-25T09:49:19.030Z,147792.50
2018-09-25T09:51:53.878Z,147768.88
2018-09-25T09:54:28.581Z,147669.47
2018-09-25T09:57:05.008Z,147736.59
2018-09-25T09:59:39.905Z,147839.78
2018-09-25T10:02:14.944Z,147782.58
2018-09-25T10:04:49.655Z,147804.97
2018-09-25T10:07:25.025Z,147836.06
2018-09-25T10:10:00.116Z,147905.66
2018-09-25T10:12:36.163Z,147919.31
2018-09-25T10:15:11.060Z,147915.59
2018-09-25T10:17:45.974Z,147940.48
2018-09-25T10:20:21.641Z,147942.97
2018-09-25T10:22:56.560Z,148027.53
2018-09-25T10:25:31.520Z,148151.95
2018-09-25T10:28:06.286Z,148105.92
2018-09-25T10:30:41.049Z,148056.17
2018-09-25T10:33:15.964Z,147951.66
2018-09-25T10:35:50.671Z,147706.75
2018-09-25T10:38:25.603Z,147509.22
2018-09-25T10:41:01.126Z,147413.61
2018-09-25T10:43:36.229Z,147403.64
2018-09-25T10:46:11.604Z,147351.52
2018-09-25T10:48:47.332Z,147424.77
2018-09-25T10:51:22.506Z,147493.03
2018-09-25T10:53:58.655Z,147501.77
2018-09-25T10:56:37.156Z,147494.28
2018-09-25T10:59:13.074Z,147465.75
2018-09-25T11:01:47.799Z,147354.00
2018-09-25T11:04:22.974Z,147284.52
2018-09-25T11:06:57.658Z,147263.44
2018-09-25T11:09:32.675Z,147263.44
2018-09-25T11:12:07.791Z,147255.95
2018-09-25T11:14:42.619Z,147283.28
2018-09-25T11:17:17.416Z,147313.08
2018-09-25T11:19:52.456Z,147298.16
2018-09-25T11:22:27.257Z,147304.36
2018-09-25T11:25:02.657Z,147321.75
2018-09-25T11:27:37.841Z,147337.88
2018-09-25T11:30:13.088Z,147351.52
2018-09-25T11:32:48.163Z,147419.81
2018-09-25T11:35:23.168Z,147479.39
2018-09-25T11:37:58.042Z,147524.09
2018-09-25T11:40:32.941Z,147570.09
2018-09-25T11:43:07.947Z,147475.67
2018-09-25T11:45:42.965Z,147396.20
2018-09-25T11:48:18.085Z,147381.33
2018-09-25T11:50:53.319Z,147365.20
2018-09-25T11:53:28.205Z,147386.28
2018-09-25T11:56:03.461Z,147432.22
2018-09-25T11:58:38.461Z,147359.00
2018-09-25T12:01:13.371Z,147289.47
2018-09-25T12:03:49.413Z,147298.16
2018-09-25T12:06:24.665Z,147335.39
2018-09-25T12:08:59.813Z,147355.23
2018-09-25T12:11:35.301Z,147330.44
2018-09-25T12:14:10.121Z,147336.64
2018-09-25T12:16:45.308Z,147350.28
2018-09-25T12:19:20.100Z,147274.59
2018-09-25T12:21:55.045Z,147480.64
2018-09-25T12:24:30.742Z,147551.48
2018-09-25T12:27:05.794Z,147578.78
2018-09-25T12:29:40.724Z,147527.83
2018-09-25T12:32:16.383Z,147520.38
2018-09-25T12:34:51.289Z,147489.31
2018-09-25T12:37:27.028Z,147500.53
2018-09-25T12:40:02.720Z,147486.84
2018-09-25T12:42:37.817Z,147406.17
2018-09-25T12:45:13.963Z,147303.11
2018-09-25T12:47:48.934Z,147323.00
2018-09-25T12:50:23.979Z,147239.80
2018-09-25T12:52:58.923Z,147246.00
2018-09-25T12:55:33.785Z,147205.05
2018-09-25T13:01:11.451Z,147151.72
2018-09-25T13:03:46.488Z,147212.48
2018-09-25T13:06:21.502Z,147265.92
2018-09-25T13:08:56.440Z,147295.67
2018-09-25T13:11:32.149Z,147390.00
2018-09-25T13:14:08.021Z,147457.06
2018-09-25T13:16:43.113Z,147511.69
2018-09-25T13:19:21.720Z,147550.25
2018-09-25T13:21:56.757Z,147547.77
2018-09-25T13:24:32.657Z,147572.58
2018-09-25T13:27:07.563Z,147561.41
2018-09-25T13:29:42.685Z,147536.50
2018-09-25T13:32:17.822Z,147567.62
2018-09-25T13:34:52.736Z,147566.37
2018-09-25T13:37:27.444Z,147539.03
2018-09-25T13:40:02.267Z,147589.95
2018-09-25T13:42:37.295Z,147573.83
2018-09-25T13:45:12.490Z,147512.94
2018-09-25T13:47:47.458Z,147520.38
2018-09-25T13:50:22.424Z,147498.00
2018-09-25T13:52:57.548Z,147490.56
2018-09-25T13:55:32.555Z,147496.77
2018-09-25T13:58:08.798Z,147480.64
2018-09-25T14:00:45.282Z,147428.50
2018-09-25T14:03:20.681Z,147439.66
2018-09-25T14:05:55.711Z,147443.38
2018-09-25T14:08:30.743Z,147448.34
2018-09-25T14:11:05.863Z,147463.27
2018-09-25T14:13:40.661Z,147474.44
2018-09-25T14:16:16.578Z,147484.36
2018-09-25T14:18:51.359Z,147516.66
2018-09-25T14:21:26.622Z,147537.80
2018-09-25T14:24:02.185Z,147540.28
2018-09-25T14:26:37.233Z,147545.28
2018-09-25T14:29:13.183Z,147524.09
2018-09-25T14:31:48.213Z,147522.86
2018-09-25T14:34:25.144Z,147546.53
2018-09-25T14:37:00.254Z,147563.91
2018-09-25T14:39:36.482Z,147587.47
2018-09-25T14:42:12.786Z,147565.12
2018-09-25T14:44:49.175Z,147539.03
2018-09-25T14:47:24.210Z,147567.62
2018-09-25T14:49:59.151Z,147531.55
2018-09-25T14:52:34.052Z,147544.00
2018-09-25T14:55:09.131Z,147550.25
2018-09-25T14:57:44.150Z,147558.94
2018-09-25T15:00:19.772Z,147537.80
2018-09-25T15:02:55.112Z,147498.00
2018-09-25T15:05:30.220Z,147483.12
2018-09-25T15:08:05.377Z,147491.80
2018-09-25T15:10:40.608Z,147473.19
2018-09-25T15:13:16.602Z,147414.86
2018-09-25T15:15:51.653Z,147404.94
2018-09-25T15:18:27.681Z,147408.66
2018-09-25T15:21:04.015Z,147402.41
2018-09-25T15:23:39.141Z,147350.28
2018-09-25T15:26:14.758Z,147371.41
2018-09-25T15:28:49.898Z,147325.47
2018-09-25T15:31:25.854Z,147316.80
2018-09-25T15:34:00.910Z,147310.59
2018-09-25T15:36:36.131Z,147332.92
2018-09-25T15:39:13.311Z,147321.75
2018-09-25T15:41:48.461Z,147267.16
2018-09-25T15:44:23.473Z,147257.20
2018-09-25T15:46:58.696Z,147244.75
2018-09-25T15:49:33.718Z,147228.64
2018-09-25T15:52:08.729Z,147193.89
2018-09-25T15:54:43.874Z,147160.38
2018-09-25T15:57:19.048Z,147126.94
2018-09-25T15:59:54.012Z,147115.73
2018-09-25T16:02:29.043Z,147054.97
2018-09-25T16:05:05.208Z,147014.05
2018-09-25T16:07:40.373Z,146969.42
2018-09-25T16:10:15.243Z,146933.45
2018-09-25T16:12:51.309Z,146892.55
2018-09-25T16:15:27.192Z,146872.69
2018-09-25T16:18:02.145Z,146867.75
2018-09-25T16:20:37.328Z,146885.08
2018-09-25T16:23:12.884Z,146881.36
2018-09-25T16:25:47.964Z,146862.78
2018-09-25T16:28:22.994Z,146837.98
2018-09-25T16:30:57.956Z,146851.64
2018-09-25T16:33:34.030Z,146849.17
2018-09-25T16:36:08.975Z,146837.98
2018-09-25T16:38:44.156Z,146840.50
2018-09-25T16:41:19.397Z,146828.08
2018-09-25T16:43:54.846Z,146830.56
2018-09-25T16:46:30.106Z,146831.80
2018-09-25T16:49:06.238Z,146820.66
2018-09-25T16:51:42.710Z,146792.12
2018-09-25T16:54:17.869Z,146795.89
2018-09-25T16:56:53.283Z,146800.84
2018-09-25T16:59:28.652Z,146793.42
2018-09-25T17:02:04.365Z,146742.59
2018-09-25T17:04:39.476Z,146709.17
2018-09-25T17:07:16.045Z,146702.98
2018-09-25T17:09:52.044Z,146704.22
2018-09-25T17:12:28.046Z,146696.75
2018-09-25T17:15:03.356Z,146691.80
2018-09-25T17:17:39.132Z,146664.58
2018-09-25T17:20:14.455Z,146639.78
2018-09-25T17:22:51.663Z,146636.08
2018-09-25T17:25:28.761Z,146623.70
2018-09-25T17:28:04.254Z,146612.58
2018-09-25T17:30:39.153Z,146605.09
2018-09-25T17:33:14.399Z,146570.42
2018-09-25T17:35:50.179Z,146560.53
2018-09-25T17:38:25.746Z,146534.50
2018-09-25T17:41:01.173Z,146513.48
2018-09-25T17:43:37.368Z,146506.02
2018-09-25T17:46:12.686Z,146502.31
2018-09-25T17:48:51.924Z,146498.59
2018-09-25T17:51:29.040Z,146491.19
2018-09-25T17:54:04.916Z,146481.28
2018-09-25T17:56:41.018Z,146480.05
2018-09-25T17:59:16.893Z,146489.94
2018-09-25T18:01:52.312Z,146483.77
2018-09-25T18:04:27.602Z,146491.19
2018-09-25T18:07:03.808Z,146486.23
2018-09-25T18:09:39.163Z,146470.16
2018-09-25T18:12:14.317Z,146477.58
2018-09-25T18:14:49.524Z,146487.47
2018-09-25T18:17:25.188Z,146488.70
2018-09-25T18:20:00.108Z,146486.23
2018-09-25T18:22:35.714Z,146468.92
2018-09-25T18:25:10.866Z,146478.81
2018-09-25T18:27:46.600Z,146483.77
2018-09-25T18:30:21.838Z,146489.94
2018-09-25T18:32:57.451Z,146471.39
2018-09-25T18:35:32.924Z,146472.63
2018-09-25T18:38:08.982Z,146463.97
2018-09-25T18:40:44.023Z,146486.23
2018-09-25T18:43:23.022Z,146485.00
2018-09-25T18:45:59.698Z,146471.39
2018-09-25T18:48:34.825Z,146468.92
2018-09-25T18:51:11.506Z,146470.16
2018-09-25T18:53:49.312Z,146472.63
2018-09-25T18:56:24.164Z,146456.52
2018-09-25T18:58:59.334Z,146450.33
2018-09-25T19:01:35.339Z,146424.38
2018-09-25T19:04:17.057Z,146426.84
2018-09-25T19:06:52.908Z,146430.55
2018-09-25T19:09:28.169Z,146399.59
2018-09-25T19:12:03.420Z,146395.88
2018-09-25T19:14:38.525Z,146383.53
2018-09-25T19:17:13.676Z,146357.52
2018-09-25T19:19:48.886Z,146364.94
2018-09-25T19:22:24.184Z,146337.75
2018-09-25T19:24:59.524Z,146337.75
2018-09-25T19:27:34.775Z,146330.33
2018-09-25T19:30:10.354Z,146306.80
2018-09-25T19:32:45.979Z,146304.33
2018-09-25T19:35:21.224Z,146301.86
2018-09-25T19:37:56.187Z,146298.16
2018-09-25T19:40:31.002Z,146284.56
2018-09-25T19:43:06.568Z,146291.97
2018-09-25T19:45:42.601Z,146280.84
2018-09-25T19:48:19.377Z,146303.09
2018-09-25T19:50:56.077Z,146288.27
2018-09-25T19:53:31.580Z,146279.61
2018-09-25T19:56:06.882Z,146265.97
2018-09-25T19:58:41.871Z,146265.97
2018-09-25T20:01:17.034Z,146268.44
2018-09-25T20:03:51.981Z,146251.16
2018-09-25T20:06:27.754Z,146241.27
2018-09-25T20:09:02.743Z,146211.52
2018-09-25T20:11:37.603Z,146225.11
2018-09-25T20:14:12.707Z,146204.11
2018-09-25T20:16:47.965Z,146209.05
2018-09-25T20:19:22.897Z,146202.88
2018-09-25T20:21:58.250Z,146205.34
2018-09-25T20:24:33.132Z,146195.47
2018-09-25T20:27:08.222Z,146196.69
2018-09-25T20:29:43.284Z,146194.22
2018-09-25T20:32:19.725Z,146171.94
2018-09-25T20:34:55.070Z,146181.83
2018-09-25T20:37:30.864Z,146143.53
2018-09-25T20:40:05.861Z,146137.36
2018-09-25T20:42:40.765Z,146142.30
2018-09-25T20:45:15.784Z,146091.61
2018-09-25T20:47:51.130Z,146097.78
2018-09-25T20:50:26.008Z,146102.72
2018-09-25T20:53:01.140Z,146091.61
2018-09-25T20:55:36.205Z,146091.61
2018-09-25T20:58:11.124Z,146124.95
2018-09-25T21:00:45.893Z,146105.19
2018-09-25T21:03:20.844Z,146113.84
2018-09-25T21:05:55.805Z,146092.84
2018-09-25T21:08:30.753Z,146107.67
2018-09-25T21:11:05.642Z,146097.78
2018-09-25T21:13:40.894Z,146115.08
2018-09-25T21:17:44.832Z,146124.95
2018-09-25T21:20:20.291Z,146096.56
2018-09-25T21:22:56.137Z,146080.45
2018-09-25T21:25:32.053Z,146103.97
2018-09-25T21:28:07.057Z,146092.84
2018-09-25T21:30:42.423Z,146096.56
2018-09-25T21:33:18.364Z,146118.78
2018-09-25T21:35:53.311Z,146143.53
2018-09-25T21:38:28.268Z,146149.70
2018-09-25T21:41:04.329Z,146162.06
2018-09-25T21:43:40.542Z,146152.17
2018-09-25T21:46:15.763Z,146164.53
2018-09-25T21:48:50.701Z,146169.47
2018-09-25T21:51:26.131Z,146169.47
2018-09-25T21:54:00.868Z,146168.23
2018-09-25T21:56:36.193Z,146158.36
2018-09-25T21:59:11.123Z,146146.00
2018-09-25T22:01:47.107Z,146137.36
2018-09-25T22:04:22.382Z,146128.66
2018-09-25T22:06:57.573Z,146118.78
2018-09-25T22:09:32.599Z,146116.31
2018-09-25T22:12:07.757Z,146099.03
2018-09-25T22:14:42.512Z,146087.86
2018-09-25T22:17:17.857Z,146077.98
2018-09-25T22:19:53.073Z,146065.63
2018-09-25T22:22:28.838Z,146070.58
2018-09-25T22:25:03.960Z,146060.69
2018-09-25T22:27:38.977Z,146060.69
2018-09-25T22:30:14.021Z,146053.28
2018-09-25T22:32:49.418Z,146048.34
2018-09-25T22:35:24.277Z,146044.64
2018-09-25T22:37:59.410Z,146060.69
2018-09-25T22:40:34.515Z,146006.33
2018-09-25T22:43:10.587Z,146017.44
2018-09-25T22:45:45.355Z,146003.84
2018-09-25T22:48:21.037Z,146000.16
2018-09-25T22:54:12.121Z,145984.06
2018-09-25T22:56:48.085Z,145990.22
2018-09-25T22:59:23.231Z,145979.11
2018-09-25T23:01:58.166Z,145976.66
2018-09-25T23:04:33.763Z,145984.06
2018-09-25T23:07:09.146Z,145974.17
2018-09-25T23:09:44.736Z,145963.06
2018-09-25T23:12:20.065Z,145958.12
2018-09-25T23:14:55.110Z,145934.62
2018-09-25T23:17:31.763Z,145942.03
2018-09-25T23:20:08.881Z,145930.94
2018-09-25T23:22:43.852Z,145939.56
2018-09-25T23:25:19.227Z,145940.80
2018-09-25T23:27:55.222Z,145942.03
2018-09-25T23:30:30.023Z,145916.13
2018-09-25T23:33:05.078Z,145900.03
2018-09-25T23:35:40.315Z,145897.56
2018-09-25T23:38:15.656Z,145893.86
2018-09-25T23:41:22.335Z,145872.88
2018-09-25T23:43:58.045Z,145890.16
2018-09-25T23:46:35.069Z,145885.22
2018-09-25T23:49:25.066Z,145882.75
2018-09-25T23:52:06.090Z,145883.98
2018-09-25T23:54:41.316Z,145877.81
2018-09-25T23:57:15.600Z,145867.94
